createdAt,value
2022-10-05T00:03:03.522Z,101700.0
2022-10-05T00:08:03.521Z,101690.0
2022-10-05T00:13:03.524Z,101690.0
2022-10-05T00:18:03.523Z,101700.0
2022-10-05T00:23:03.530Z,101690.0
2022-10-05T00:28:03.629Z,101690.0
2022-10-05T00:33:03.531Z,101670.0
2022-10-05T00:38:03.537Z,101680.0
2022-10-05T00:43:03.553Z,101680.0
2022-10-05T00:48:03.547Z,101680.0
2022-10-05T00:58:03.546Z,101680.0
2022-10-05T01:08:03.546Z,101680.0
2022-10-05T01:13:03.547Z,101670.0
2022-10-05T01:18:16.904Z,101660.0
2022-10-05T01:23:03.552Z,101660.0
2022-10-05T01:28:03.599Z,101640.0
2022-10-05T01:33:03.558Z,101640.0
2022-10-05T01:38:03.565Z,101630.0
2022-10-05T01:43:03.558Z,101630.0
2022-10-05T01:48:03.572Z,101620.0
2022-10-05T01:58:03.566Z,101620.0
2022-10-05T02:03:03.571Z,101620.0
2022-10-05T02:08:03.561Z,101610.0
2022-10-05T02:13:03.566Z,101610.0
2022-10-05T02:18:03.561Z,101600.0
2022-10-05T02:23:03.563Z,101590.0
2022-10-05T02:28:03.642Z,101590.0
2022-10-05T02:33:03.583Z,101580.0
2022-10-05T02:43:03.580Z,101570.0
2022-10-05T02:48:03.583Z,101560.0
2022-10-05T02:53:03.576Z,101550.0
2022-10-05T02:58:03.582Z,101550.0
2022-10-05T03:03:16.930Z,101550.0
2022-10-05T03:08:03.583Z,101540.0
2022-10-05T03:13:03.583Z,101530.0
2022-10-05T03:33:03.601Z,101530.0
2022-10-05T03:38:03.616Z,101550.0
2022-10-05T03:43:03.606Z,101550.0
2022-10-05T03:48:03.594Z,101530.0
2022-10-05T03:53:03.596Z,101530.0
2022-10-05T03:58:03.608Z,101530.0
2022-10-05T04:03:03.683Z,101530.0
2022-10-05T04:08:03.606Z,101520.0
2022-10-05T04:13:03.607Z,101530.0
2022-10-05T04:18:03.620Z,101540.0
2022-10-05T04:23:03.614Z,101530.0
2022-10-05T04:28:03.652Z,101530.0
2022-10-05T04:33:03.609Z,101530.0
2022-10-05T04:38:03.612Z,101520.0
2022-10-05T04:48:03.621Z,101520.0
2022-10-05T04:53:03.730Z,101510.0
2022-10-05T04:58:03.678Z,101510.0
2022-10-05T05:03:03.671Z,101510.0
2022-10-05T05:08:03.675Z,101520.0
2022-10-05T05:13:03.626Z,101520.0
2022-10-05T05:18:03.629Z,101510.0
2022-10-05T05:28:03.647Z,101500.0
2022-10-05T05:33:03.628Z,101500.0
2022-10-05T05:38:03.635Z,101500.0
2022-10-05T05:43:03.637Z,101500.0
2022-10-05T05:48:03.642Z,101500.0
2022-10-05T05:53:03.638Z,101490.0
2022-10-05T05:58:03.638Z,101490.0
2022-10-05T06:03:03.724Z,101490.0
2022-10-05T06:08:03.648Z,101490.0
2022-10-05T06:13:03.652Z,101480.0
2022-10-05T06:18:03.653Z,101480.0
2022-10-05T06:23:03.647Z,101480.0
2022-10-05T06:28:03.734Z,101500.0
2022-10-05T06:38:03.657Z,101490.0
2022-10-05T06:43:03.671Z,101500.0
2022-10-05T06:48:05.584Z,101490.0
2022-10-05T06:53:03.703Z,101480.0
2022-10-05T06:58:03.670Z,101490.0
2022-10-05T07:03:03.668Z,101490.0
2022-10-05T07:08:03.666Z,101490.0
2022-10-05T07:13:03.678Z,101490.0
2022-10-05T07:18:03.673Z,101490.0
2022-10-05T07:23:03.674Z,101490.0
2022-10-05T07:28:03.700Z,101490.0
2022-10-05T07:33:03.679Z,101500.0
2022-10-05T07:38:03.683Z,101500.0
2022-10-05T07:43:03.686Z,101500.0
2022-10-05T07:48:03.690Z,101500.0
2022-10-05T07:53:03.685Z,101510.0
2022-10-05T07:58:03.693Z,101510.0
2022-10-05T08:03:03.728Z,101510.0
2022-10-05T08:08:03.704Z,101500.0
2022-10-05T08:13:03.694Z,101500.0
2022-10-05T08:18:03.705Z,101500.0
2022-10-05T08:23:03.701Z,101490.0
2022-10-05T08:28:03.739Z,101480.0
2022-10-05T08:33:03.705Z,101470.0
2022-10-05T08:38:03.710Z,101470.0
2022-10-05T08:43:03.709Z,101470.0
2022-10-05T08:48:03.705Z,101460.0
2022-10-05T08:53:03.715Z,101450.0
2022-10-05T08:58:03.713Z,101460.0
2022-10-05T09:03:03.848Z,101460.0
2022-10-05T09:08:03.733Z,101450.0
2022-10-05T09:13:03.729Z,101450.0
2022-10-05T09:18:03.732Z,101450.0
2022-10-05T09:23:03.732Z,101450.0
2022-10-05T09:28:03.838Z,101440.0
2022-10-05T09:33:03.732Z,101450.0
2022-10-05T09:38:03.729Z,101450.0
2022-10-05T09:43:03.733Z,101430.0
2022-10-05T09:48:03.740Z,101440.0
2022-10-05T09:53:03.742Z,101430.0
2022-10-05T09:58:03.746Z,101420.0
2022-10-05T10:03:03.824Z,101420.0
2022-10-05T10:08:03.751Z,101420.0
2022-10-05T10:13:03.759Z,101410.0
2022-10-05T10:18:03.755Z,101400.0
2022-10-05T10:23:03.760Z,101400.0
2022-10-05T10:28:03.822Z,101390.0
2022-10-05T10:33:03.761Z,101390.0
2022-10-05T10:38:03.768Z,101380.0
2022-10-05T10:43:03.777Z,101370.0
2022-10-05T10:48:03.783Z,101370.0
2022-10-05T10:53:03.771Z,101360.0
2022-10-05T10:58:03.777Z,101350.0
2022-10-05T11:03:03.917Z,101360.0
2022-10-05T11:08:03.778Z,101350.0
2022-10-05T11:13:03.792Z,101340.0
2022-10-05T11:18:03.779Z,101330.0
2022-10-05T11:23:03.788Z,101340.0
2022-10-05T11:28:03.838Z,101320.0
2022-10-05T11:33:03.800Z,101310.0
2022-10-05T11:38:03.791Z,101320.0
2022-10-05T11:43:03.808Z,101310.0
2022-10-05T11:48:03.807Z,101290.0
2022-10-05T11:53:03.804Z,101290.0
2022-10-05T11:58:03.831Z,101280.0
2022-10-05T12:03:03.947Z,101280.0
2022-10-05T12:08:03.806Z,101270.0
2022-10-05T12:13:03.813Z,101260.0
2022-10-05T12:18:03.821Z,101250.0
2022-10-05T12:23:03.831Z,101240.0
2022-10-05T12:28:03.869Z,101220.0
2022-10-05T12:33:03.832Z,101230.0
2022-10-05T12:38:03.829Z,101210.0
2022-10-05T12:43:03.822Z,101210.0
2022-10-05T12:48:03.834Z,101200.0
2022-10-05T12:53:03.831Z,101210.0
2022-10-05T12:58:03.840Z,101210.0
2022-10-05T13:03:03.833Z,101200.0
2022-10-05T13:08:03.853Z,101210.0
2022-10-05T13:13:03.847Z,101210.0
2022-10-05T13:18:03.844Z,101220.0
2022-10-05T13:23:03.859Z,101210.0
2022-10-05T13:28:03.867Z,101220.0
2022-10-05T13:33:03.849Z,101200.0
2022-10-05T13:38:03.853Z,101200.0
2022-10-05T13:43:03.854Z,101200.0
2022-10-05T13:48:03.858Z,101220.0
2022-10-05T13:53:03.858Z,101210.0
2022-10-05T13:58:03.856Z,101220.0
2022-10-05T14:03:03.946Z,101210.0
2022-10-05T14:08:03.865Z,101220.0
2022-10-05T14:13:03.873Z,101220.0
2022-10-05T14:23:03.871Z,101210.0
2022-10-05T14:28:03.949Z,101220.0
2022-10-05T14:33:03.875Z,101230.0
2022-10-05T14:38:03.876Z,101220.0
2022-10-05T14:43:03.889Z,101210.0
2022-10-05T14:48:03.886Z,101230.0
2022-10-05T14:53:03.879Z,101220.0
2022-10-05T14:58:03.886Z,101230.0
2022-10-05T15:03:03.891Z,101230.0
2022-10-05T15:08:03.889Z,101240.0
2022-10-05T15:13:05.952Z,101260.0
2022-10-05T15:18:03.900Z,101260.0
2022-10-05T15:23:03.902Z,101300.0
2022-10-05T15:28:04.011Z,101320.0
2022-10-05T15:33:03.904Z,101330.0
2022-10-05T15:38:03.890Z,101350.0
2022-10-05T15:43:03.893Z,101360.0
2022-10-05T15:48:03.897Z,101380.0
2022-10-05T15:53:03.885Z,101370.0
2022-10-05T15:58:03.900Z,101370.0
2022-10-05T16:03:03.895Z,101360.0
2022-10-05T16:08:03.903Z,101360.0
2022-10-05T16:13:03.914Z,101360.0
2022-10-05T16:18:03.897Z,101350.0
2022-10-05T16:23:03.904Z,101370.0
2022-10-05T16:28:05.741Z,101370.0
2022-10-05T16:33:03.913Z,101370.0
2022-10-05T16:38:03.908Z,101390.0
2022-10-05T16:43:03.912Z,101400.0
2022-10-05T16:48:03.908Z,101390.0
2022-10-05T16:53:03.905Z,101400.0
2022-10-05T16:58:03.915Z,101400.0
2022-10-05T17:03:03.906Z,101400.0
2022-10-05T17:08:03.911Z,101410.0
2022-10-05T17:13:03.936Z,101410.0
2022-10-05T17:18:03.924Z,101410.0
2022-10-05T17:23:03.937Z,101410.0
2022-10-05T17:28:03.986Z,101420.0
2022-10-05T17:33:03.927Z,101430.0
2022-10-05T17:38:03.931Z,101440.0
2022-10-05T17:43:03.925Z,101430.0
2022-10-05T17:48:03.932Z,101440.0
2022-10-05T17:53:03.928Z,101450.0
2022-10-05T17:58:03.931Z,101440.0
2022-10-05T18:03:03.972Z,101450.0
2022-10-05T18:08:03.938Z,101460.0
2022-10-05T18:13:03.944Z,101460.0
2022-10-05T18:18:03.942Z,101460.0
2022-10-05T18:23:03.945Z,101450.0
2022-10-05T18:28:04.010Z,101450.0
2022-10-05T18:33:03.966Z,101460.0
2022-10-05T18:38:03.959Z,101470.0
2022-10-05T18:43:03.952Z,101480.0
2022-10-05T18:48:03.960Z,101470.0
2022-10-05T18:53:03.959Z,101470.0
2022-10-05T18:58:03.967Z,101470.0
2022-10-05T19:03:03.959Z,101470.0
2022-10-05T19:08:03.958Z,101490.0
2022-10-05T19:13:03.989Z,101480.0
2022-10-05T19:18:03.967Z,101490.0
2022-10-05T19:23:03.968Z,101490.0
2022-10-05T19:28:04.006Z,101510.0
2022-10-05T19:33:03.968Z,101500.0
2022-10-05T19:43:03.992Z,101510.0
2022-10-05T19:48:03.993Z,101510.0
2022-10-05T19:53:03.984Z,101520.0
2022-10-05T19:58:03.981Z,101530.0
2022-10-05T20:03:04.026Z,101570.0
2022-10-05T20:08:03.988Z,101580.0
2022-10-05T20:13:03.989Z,101590.0
2022-10-05T20:18:04.011Z,101610.0
2022-10-05T20:23:03.990Z,101600.0
2022-10-05T20:28:04.031Z,101590.0
2022-10-05T20:33:03.991Z,101610.0
2022-10-05T20:38:03.992Z,101620.0
2022-10-05T20:43:03.989Z,101630.0
2022-10-05T20:48:03.996Z,101630.0
2022-10-05T20:53:07.273Z,101650.0
2022-10-05T20:58:04.001Z,101680.0
2022-10-05T21:08:04.001Z,101690.0
2022-10-05T21:13:04.008Z,101690.0
2022-10-05T21:18:04.013Z,101710.0
2022-10-05T21:23:04.008Z,101720.0
2022-10-05T21:28:04.032Z,101730.0
2022-10-05T21:33:04.017Z,101740.0
2022-10-05T21:43:04.021Z,101760.0
2022-10-05T21:48:04.022Z,101780.0
2022-10-05T21:53:04.026Z,101800.0
2022-10-05T21:58:04.022Z,101810.0
2022-10-05T22:03:04.023Z,101830.0
2022-10-05T22:08:04.029Z,101830.0
2022-10-05T22:13:04.027Z,101840.0
2022-10-05T22:18:04.037Z,101840.0
2022-10-05T22:23:04.029Z,101850.0
2022-10-05T22:28:04.080Z,101870.0
2022-10-05T22:33:04.038Z,101870.0
2022-10-05T22:38:04.043Z,101890.0
2022-10-05T22:43:04.029Z,101890.0
2022-10-05T22:48:04.039Z,101900.0
2022-10-05T22:53:04.037Z,101910.0
2022-10-05T22:58:04.041Z,101920.0
2022-10-05T23:03:04.036Z,101950.0
2022-10-05T23:08:04.052Z,101950.0
2022-10-05T23:13:04.046Z,101960.0
2022-10-05T23:18:04.054Z,101950.0
2022-10-05T23:23:04.054Z,101970.0
2022-10-05T23:28:04.081Z,101980.0
2022-10-05T23:33:04.056Z,101990.0
2022-10-05T23:38:04.044Z,102000.0
2022-10-05T23:43:04.041Z,102020.0
2022-10-05T23:48:04.051Z,102030.0
2022-10-05T23:53:04.044Z,102040.0
2022-10-05T23:58:04.054Z,102050.0
